Time;durP1;ratioP1;P1;durP2;ratioP2;P2;SDS_P1;SDS_P2;PMS_P1;PMS_P2;Temp;Humidity;BMP_temperature;BMP_pressure;BME280_temperature;BME280_humidity;BME280_pressure;Samples;Min_cycle;Max_cycle;Signal;HPM_P1;HPM_P2
2022/06/04 05:00:27;;;;;;;9.67;8.47;;;20.20;97.20;;;;;;1748049;28;20178;-71
2022/06/04 05:01:19;;;;;;;7.93;7.22;;;20.20;97.20;;;;;;1747908;28;20203;-70
2022/06/04 05:02:11;;;;;;;8.00;7.30;;;20.20;97.20;;;;;;1747932;28;20229;-71
2022/06/04 05:03:02;;;;;;;8.27;7.68;;;20.20;97.20;;;;;;1748006;28;20653;-70
2022/06/04 05:03:55;;;;;;;8.35;7.75;;;20.20;97.20;;;;;;1747981;28;20198;-71
2022/06/04 05:04:46;;;;;;;8.73;7.97;;;20.20;97.20;;;;;;1747945;28;20206;-71
2022/06/04 05:05:38;;;;;;;8.60;7.80;;;20.20;97.20;;;;;;1747861;28;20781;-70
2022/06/04 05:06:29;;;;;;;8.10;7.50;;;20.20;97.20;;;;;;1747926;28;20206;-71
2022/06/04 05:07:21;;;;;;;8.63;7.93;;;20.20;97.20;;;;;;1747132;28;20677;-71
2022/06/04 05:08:12;;;;;;;8.90;8.20;;;20.20;97.20;;;;;;1747808;28;20217;-71
2022/06/04 05:09:04;;;;;;;8.13;7.50;;;20.20;97.20;;;;;;1748027;28;20301;-71
2022/06/04 05:09:55;;;;;;;8.07;7.47;;;20.20;97.20;;;;;;1747926;28;20542;-71
2022/06/04 05:10:46;;;;;;;8.70;8.00;;;20.20;97.20;;;;;;1748021;28;20629;-71
2022/06/04 05:11:37;;;;;;;8.60;8.00;;;20.20;97.20;;;;;;1747898;28;20198;-70
2022/06/04 05:12:30;;;;;;;8.27;7.68;;;20.20;97.20;;;;;;1747887;28;20201;-70
2022/06/04 05:13:20;;;;;;;8.15;7.55;;;20.20;97.20;;;;;;1747899;28;20300;-71
2022/06/04 05:14:12;;;;;;;8.87;8.17;;;20.20;97.20;;;;;;1747865;28;20298;-71
2022/06/04 05:15:04;;;;;;;8.73;8.07;;;20.20;97.20;;;;;;1747882;28;20206;-70
2022/06/04 05:15:57;;;;;;;8.82;8.02;;;20.20;97.20;;;;;;1747673;28;20301;-71
2022/06/04 05:16:48;;;;;;;8.88;7.95;;;20.20;97.20;;;;;;1747530;28;20202;-71
2022/06/04 05:17:41;;;;;;;9.13;8.53;;;20.20;97.20;;;;;;1747972;28;20282;-71
2022/06/04 05:18:32;;;;;;;8.40;7.72;;;20.20;97.20;;;;;;1747888;28;20457;-74
2022/06/04 05:19:24;;;;;;;9.05;8.27;;;20.20;97.20;;;;;;1747949;28;20676;-73
2022/06/04 05:20:16;;;;;;;9.10;8.40;;;20.20;97.20;;;;;;1747887;28;20689;-73
2022/06/04 05:21:09;;;;;;;9.15;8.45;;;20.20;97.20;;;;;;1747415;28;20198;-73
2022/06/04 05:22:01;;;;;;;9.48;8.70;;;20.20;97.20;;;;;;1747846;28;20332;-73
2022/06/04 05:22:52;;;;;;;8.50;7.80;;;20.20;97.20;;;;;;1747855;28;20222;-73
2022/06/04 05:23:43;;;;;;;8.70;8.10;;;20.20;97.20;;;;;;1747944;28;20285;-73
2022/06/04 05:24:37;;;;;;;9.20;8.50;;;20.20;97.20;;;;;;1747788;28;20194;-73
2022/06/04 05:25:27;;;;;;;9.32;8.57;;;20.20;97.20;;;;;;1747035;28;20206;-72
2022/06/04 05:26:20;;;;;;;8.73;7.50;;;20.20;97.20;;;;;;1750544;28;20710;-72
2022/06/04 05:27:11;;;;;;;8.65;7.90;;;20.20;97.20;;;;;;1747598;28;20232;-72
2022/06/04 05:28:03;;;;;;;9.48;8.77;;;20.10;97.20;;;;;;1747652;28;20564;-72
2022/06/04 05:28:54;;;;;;;9.52;8.73;;;20.10;97.20;;;;;;1742672;28;20191;-72
2022/06/04 05:29:46;;;;;;;9.00;8.30;;;20.00;97.20;;;;;;1741636;28;20223;-72
2022/06/04 05:30:36;;;;;;;8.63;7.93;;;20.00;97.20;;;;;;1741229;28;20214;-72
2022/06/04 05:31:29;;;;;;;8.73;7.97;;;20.00;97.20;;;;;;1742276;28;20509;-73
2022/06/04 05:32:21;;;;;;;8.45;7.63;;;20.00;97.20;;;;;;1748316;28;20198;-72
2022/06/04 05:33:12;;;;;;;8.35;7.65;;;20.00;97.20;;;;;;1748202;28;20210;-72
2022/06/04 05:34:04;;;;;;;9.03;8.30;;;20.00;97.20;;;;;;1748458;28;20289;-72
2022/06/04 05:34:54;;;;;;;8.80;8.20;;;20.00;97.20;;;;;;1748600;28;20198;-72
2022/06/04 05:35:46;;;;;;;10.00;9.10;;;20.00;97.20;;;;;;1748084;28;20219;-72
2022/06/04 05:36:37;;;;;;;9.30;8.50;;;20.00;97.20;;;;;;1746182;28;20194;-72
2022/06/04 05:37:29;;;;;;;8.50;7.80;;;20.00;97.20;;;;;;1747971;28;20228;-72
2022/06/04 05:38:20;;;;;;;8.73;8.02;;;20.00;97.20;;;;;;1747674;28;20869;-71
2022/06/04 05:39:13;;;;;;;8.45;7.75;;;20.00;97.20;;;;;;1747431;28;20190;-72
2022/06/04 05:40:05;;;;;;;8.90;8.10;;;20.00;97.20;;;;;;1747827;28;20203;-72
2022/06/04 05:41:01;;;;;;;9.07;8.27;;;20.10;97.20;;;;;;1747821;28;20191;-72
2022/06/04 05:41:52;;;;;;;8.13;7.53;;;20.10;97.20;;;;;;1747956;28;20199;-72
2022/06/04 05:42:44;;;;;;;7.70;7.00;;;20.10;97.20;;;;;;1747864;28;20298;-72
2022/06/04 05:43:35;;;;;;;7.82;7.22;;;20.10;97.20;;;;;;1747746;28;20433;-72
2022/06/04 05:44:28;;;;;;;8.93;8.13;;;20.20;97.20;;;;;;1747871;28;20735;-72
2022/06/04 05:45:19;;;;;;;8.65;8.02;;;20.20;97.20;;;;;;1749934;28;20193;-71
2022/06/04 05:46:12;;;;;;;8.30;7.53;;;20.20;97.20;;;;;;1747913;28;20772;-72
2022/06/04 05:47:05;;;;;;;9.00;8.20;;;20.30;97.20;;;;;;1747544;28;20687;-72
2022/06/04 05:47:56;;;;;;;8.23;7.53;;;20.20;97.20;;;;;;1747728;28;20199;-72
2022/06/04 05:48:48;;;;;;;8.00;7.30;;;20.30;97.20;;;;;;1747845;28;20203;-72
2022/06/04 05:49:40;;;;;;;8.20;7.60;;;20.20;97.20;;;;;;1747874;28;20650;-72
2022/06/04 05:50:31;;;;;;;8.15;7.38;;;20.20;97.20;;;;;;1747726;28;20210;-72
2022/06/04 05:51:25;;;;;;;9.03;8.33;;;20.10;97.20;;;;;;1746908;28;20282;-72
2022/06/04 05:52:15;;;;;;;7.80;7.20;;;20.10;97.20;;;;;;1746169;28;20221;-72
2022/06/04 05:53:07;;;;;;;7.35;6.85;;;20.10;97.20;;;;;;1747098;28;20202;-72
2022/06/04 05:54:00;;;;;;;8.27;7.50;;;20.10;97.20;;;;;;1747029;28;20231;-72
2022/06/04 05:54:52;;;;;;;7.47;6.88;;;20.00;97.20;;;;;;1746898;28;20186;-71
2022/06/04 05:55:43;;;;;;;8.05;7.20;;;20.00;97.20;;;;;;1747221;28;20233;-72
2022/06/04 05:56:36;;;;;;;7.53;6.83;;;20.00;97.20;;;;;;1747104;28;20286;-72
2022/06/04 05:57:27;;;;;;;7.70;7.05;;;20.00;97.20;;;;;;1746945;28;20452;-73
2022/06/04 05:58:19;;;;;;;8.47;7.70;;;20.00;97.20;;;;;;1747146;28;20223;-72
2022/06/04 05:59:12;;;;;;;7.68;7.07;;;20.00;97.20;;;;;;1747176;28;20202;-72
2022/06/04 06:00:07;;;;;;;6.97;6.47;;;19.90;97.20;;;;;;1747163;28;20697;-72
2022/06/04 06:01:00;;;;;;;7.38;6.80;;;19.90;97.20;;;;;;1746829;28;20191;-72
2022/06/04 06:01:52;;;;;;;6.55;6.15;;;19.80;97.20;;;;;;1746975;28;20203;-72
2022/06/04 06:02:45;;;;;;;7.22;6.63;;;19.80;97.20;;;;;;1746776;28;20230;-72
2022/06/04 06:03:36;;;;;;;7.82;7.13;;;19.80;97.20;;;;;;1746973;28;20195;-72
2022/06/04 06:04:28;;;;;;;7.13;6.60;;;19.70;97.20;;;;;;1746885;28;20205;-72
2022/06/04 06:05:20;;;;;;;7.80;7.20;;;19.60;97.20;;;;;;1747037;28;20897;-72
2022/06/04 06:06:12;;;;;;;7.97;7.38;;;19.60;97.20;;;;;;1746814;28;20736;-73
2022/06/04 06:07:04;;;;;;;7.47;6.80;;;19.60;97.20;;;;;;1746808;28;20202;-72
2022/06/04 06:07:55;;;;;;;8.25;7.63;;;19.50;97.20;;;;;;1746653;28;20199;-72
2022/06/04 06:08:47;;;;;;;8.13;7.47;;;19.50;97.20;;;;;;1747090;28;20305;-72
2022/06/04 06:09:37;;;;;;;7.90;7.30;;;19.40;97.20;;;;;;1746983;28;20576;-72
2022/06/04 06:10:29;;;;;;;8.87;8.17;;;19.40;97.20;;;;;;1747079;28;20335;-72
2022/06/04 06:11:21;;;;;;;8.20;7.45;;;19.30;97.20;;;;;;1747567;28;20205;-73
2022/06/04 06:12:13;;;;;;;8.25;7.45;;;19.30;97.20;;;;;;1746537;28;20559;-72
2022/06/04 06:13:04;;;;;;;8.02;7.40;;;19.20;97.20;;;;;;1747221;28;20567;-72
2022/06/04 06:13:55;;;;;;;7.75;7.15;;;19.20;97.20;;;;;;1746753;28;20280;-72
2022/06/04 06:14:46;;;;;;;8.07;7.22;;;19.20;97.20;;;;;;1747039;28;20203;-73
2022/06/04 06:15:38;;;;;;;10.17;8.67;;;19.10;97.20;;;;;;1746888;28;20309;-71
2022/06/04 06:16:31;;;;;;;8.88;8.07;;;19.10;97.20;;;;;;1747344;28;20209;-72
2022/06/04 06:17:23;;;;;;;8.80;7.90;;;19.00;97.20;;;;;;1746935;28;20202;-72
2022/06/04 06:18:15;;;;;;;9.27;8.57;;;19.00;97.20;;;;;;1746787;28;20199;-71
2022/06/04 06:19:07;;;;;;;9.02;8.23;;;18.90;97.20;;;;;;1746517;28;20229;-72
2022/06/04 06:19:58;;;;;;;8.63;7.72;;;18.90;97.20;;;;;;1747484;28;20255;-72
2022/06/04 06:20:50;;;;;;;8.33;7.63;;;18.90;97.20;;;;;;1746927;28;20202;-71
2022/06/04 06:21:41;;;;;;;8.45;7.80;;;18.90;97.20;;;;;;1746705;28;20230;-71
2022/06/04 06:22:33;;;;;;;9.75;8.93;;;18.80;97.20;;;;;;1746751;28;20693;-71
2022/06/04 06:23:24;;;;;;;9.35;8.60;;;18.80;97.20;;;;;;1746547;28;20209;-71
2022/06/04 06:24:17;;;;;;;9.20;8.30;;;18.80;97.20;;;;;;1746591;28;20277;-72
2022/06/04 06:25:08;;;;;;;9.65;8.68;;;18.80;97.20;;;;;;1746591;28;20476;-71
2022/06/04 06:26:05;;;;;;;9.13;8.32;;;18.80;97.20;;;;;;1746895;28;20692;-71
2022/06/04 06:26:58;;;;;;;9.18;8.43;;;18.80;97.20;;;;;;1746767;28;20290;-72
2022/06/04 06:27:49;;;;;;;9.15;8.25;;;18.80;97.20;;;;;;1746621;28;20194;-72
2022/06/04 06:28:41;;;;;;;8.82;8.05;;;18.80;97.20;;;;;;1746756;28;20194;-71
2022/06/04 06:29:33;;;;;;;9.60;8.90;;;18.80;97.20;;;;;;1747053;28;20203;-71
2022/06/04 06:30:25;;;;;;;9.52;8.57;;;18.80;97.20;;;;;;1747413;28;20195;-71
2022/06/04 06:31:20;;;;;;;9.70;8.80;;;18.80;97.20;;;;;;1746673;28;20194;-71
2022/06/04 06:32:11;;;;;;;8.98;8.27;;;18.90;97.20;;;;;;1746690;28;20209;-71
2022/06/04 06:33:03;;;;;;;9.30;8.50;;;18.90;97.20;;;;;;1746913;28;20285;-71
2022/06/04 06:33:55;;;;;;;9.05;7.97;;;18.90;97.20;;;;;;1747160;28;20858;-72
2022/06/04 06:34:47;;;;;;;9.57;8.70;;;18.90;97.20;;;;;;1747068;28;20669;-72
2022/06/04 06:35:38;;;;;;;9.98;8.90;;;18.90;97.20;;;;;;1746501;28;20739;-71
2022/06/04 06:36:30;;;;;;;9.73;8.93;;;18.90;97.20;;;;;;1746840;28;20648;-71
2022/06/04 06:37:20;;;;;;;9.43;8.48;;;18.90;97.20;;;;;;1746129;28;20199;-72
2022/06/04 06:38:12;;;;;;;9.60;8.70;;;19.00;97.20;;;;;;1747396;28;20274;-71
2022/06/04 06:39:04;;;;;;;10.32;9.30;;;19.00;97.20;;;;;;1746676;28;20210;-71
2022/06/04 06:39:56;;;;;;;9.38;8.57;;;19.00;97.20;;;;;;1746755;28;20229;-71
2022/06/04 06:40:47;;;;;;;9.88;8.88;;;19.10;97.20;;;;;;1746891;28;20293;-71
2022/06/04 06:41:39;;;;;;;9.50;8.60;;;19.10;97.20;;;;;;1746743;28;20190;-71
2022/06/04 06:42:30;;;;;;;9.55;8.75;;;19.10;97.20;;;;;;1747013;28;20210;-72
2022/06/04 06:43:21;;;;;;;9.80;8.85;;;19.10;97.20;;;;;;1746656;28;20213;-71
2022/06/04 06:44:13;;;;;;;9.90;9.10;;;19.20;97.20;;;;;;1746963;28;20183;-71
2022/06/04 06:45:05;;;;;;;9.40;8.43;;;19.20;97.20;;;;;;1746680;28;20205;-71
2022/06/04 06:46:02;;;;;;;10.50;9.55;;;19.30;97.20;;;;;;1746268;28;20222;-72
2022/06/04 06:46:53;;;;;;;10.27;9.23;;;19.40;97.20;;;;;;1746419;28;20209;-72
2022/06/04 06:47:45;;;;;;;9.87;8.97;;;19.40;97.20;;;;;;1747415;28;20194;-71
2022/06/04 06:48:37;;;;;;;9.25;8.45;;;19.50;97.20;;;;;;1746839;28;20468;-71
2022/06/04 06:49:31;;;;;;;9.23;8.52;;;19.50;97.20;;;;;;1746641;28;20264;-71
2022/06/04 06:50:22;;;;;;;9.70;8.80;;;19.60;97.20;;;;;;1746688;28;20191;-72
2022/06/04 06:51:17;;;;;;;10.93;8.20;;;19.60;97.20;;;;;;1746786;28;20274;-72
2022/06/04 06:52:09;;;;;;;9.70;8.82;;;19.70;97.20;;;;;;1747923;28;20452;-72
2022/06/04 06:53:02;;;;;;;9.13;8.32;;;19.70;97.20;;;;;;1746588;28;20488;-72
2022/06/04 06:53:54;;;;;;;9.18;8.38;;;19.80;97.20;;;;;;1747237;28;20203;-71
2022/06/04 06:54:46;;;;;;;10.05;9.05;;;19.80;97.20;;;;;;1746163;28;20206;-71
2022/06/04 06:55:37;;;;;;;9.48;8.75;;;19.90;97.20;;;;;;1746510;28;20210;-72
2022/06/04 06:56:31;;;;;;;9.73;8.93;;;19.90;97.20;;;;;;1746366;28;20233;-72
2022/06/04 06:57:22;;;;;;;10.35;9.35;;;20.00;97.20;;;;;;1746274;28;20456;-72
2022/06/04 06:58:13;;;;;;;9.63;8.90;;;20.00;97.20;;;;;;1746368;28;20209;-71
2022/06/04 06:59:05;;;;;;;10.30;9.30;;;20.10;97.20;;;;;;1746717;28;20213;-71
2022/06/04 06:59:57;;;;;;;9.02;8.43;;;20.10;97.20;;;;;;1746274;28;20240;-72
2022/06/04 07:00:47;;;;;;;9.93;9.13;;;20.20;97.20;;;;;;1747277;28;20210;-72
2022/06/04 07:01:42;;;;;;;10.47;9.53;;;20.20;97.20;;;;;;1746506;28;20277;-71
2022/06/04 07:02:32;;;;;;;11.48;9.40;;;20.20;97.20;;;;;;1746804;28;20462;-71
2022/06/04 07:03:24;;;;;;;10.20;9.27;;;20.30;97.20;;;;;;1746308;28;20213;-72
2022/06/04 07:04:15;;;;;;;11.05;9.82;;;20.30;97.20;;;;;;1746766;28;20187;-71
2022/06/04 07:05:09;;;;;;;10.43;9.63;;;20.30;97.20;;;;;;1746607;28;20285;-72
2022/06/04 07:06:00;;;;;;;10.10;8.40;;;20.40;97.20;;;;;;1746691;28;20456;-72
2022/06/04 07:06:54;;;;;;;10.33;9.40;;;20.40;97.20;;;;;;1746464;28;20199;-72
2022/06/04 07:07:45;;;;;;;9.82;8.90;;;20.50;97.20;;;;;;1746394;28;20453;-72
2022/06/04 07:08:39;;;;;;;10.27;9.30;;;20.50;97.20;;;;;;1746145;28;20268;-71
2022/06/04 07:09:33;;;;;;;13.07;9.82;;;20.50;97.20;;;;;;1746145;28;20639;-71
2022/06/04 07:10:24;;;;;;;10.15;8.98;;;20.50;97.20;;;;;;1746236;28;20187;-72
2022/06/04 07:11:15;;;;;;;10.55;9.57;;;20.60;97.20;;;;;;1746523;28;20687;-72
2022/06/04 07:12:09;;;;;;;10.17;9.37;;;20.60;97.20;;;;;;1746968;28;20741;-72
2022/06/04 07:12:59;;;;;;;10.27;9.35;;;20.60;97.20;;;;;;1746592;28;20570;-72
2022/06/04 07:13:52;;;;;;;10.00;9.03;;;20.60;97.20;;;;;;1746512;28;20613;-72
2022/06/04 07:14:43;;;;;;;9.80;8.85;;;20.70;97.20;;;;;;1746648;28;20201;-72
2022/06/04 07:15:34;;;;;;;10.70;9.60;;;20.70;97.20;;;;;;1746367;28;20681;-72
2022/06/04 07:16:26;;;;;;;9.87;8.80;;;20.70;97.20;;;;;;1746477;28;20566;-72
2022/06/04 07:17:17;;;;;;;9.88;9.07;;;20.80;97.20;;;;;;1745986;28;20199;-72
2022/06/04 07:18:10;;;;;;;10.00;9.00;;;20.80;97.20;;;;;;1746511;28;20198;-72
2022/06/04 07:19:02;;;;;;;9.38;8.68;;;20.90;97.20;;;;;;1747441;28;20213;-71
2022/06/04 07:19:54;;;;;;;10.00;9.20;;;20.90;97.20;;;;;;1746588;28;20197;-72
2022/06/04 07:20:46;;;;;;;10.18;9.38;;;21.00;97.20;;;;;;1746472;28;20198;-72
2022/06/04 07:21:38;;;;;;;9.48;8.63;;;21.00;97.20;;;;;;1746723;28;20701;-72
2022/06/04 07:22:29;;;;;;;9.82;9.00;;;21.10;97.20;;;;;;1746564;28;20663;-72
2022/06/04 07:23:21;;;;;;;9.43;8.57;;;21.10;97.20;;;;;;1746533;28;20722;-71
2022/06/04 07:24:11;;;;;;;10.05;9.15;;;21.20;97.20;;;;;;1746487;28;20217;-72
2022/06/04 07:25:04;;;;;;;10.37;9.47;;;21.30;97.20;;;;;;1746564;28;20301;-72
2022/06/04 07:25:55;;;;;;;10.30;9.40;;;21.40;97.20;;;;;;1746067;28;20233;-72
2022/06/04 07:26:47;;;;;;;11.05;10.15;;;21.50;97.20;;;;;;1746315;28;20190;-71
2022/06/04 07:27:38;;;;;;;10.73;9.73;;;21.50;97.20;;;;;;1746651;28;20606;-72
2022/06/04 07:28:30;;;;;;;11.27;10.37;;;21.60;97.20;;;;;;1747099;28;20669;-72
2022/06/04 07:29:21;;;;;;;10.30;9.27;;;21.70;97.20;;;;;;1746425;28;20202;-71
2022/06/04 07:30:13;;;;;;;11.77;10.13;;;21.70;97.20;;;;;;1746061;28;20201;-72
2022/06/04 07:31:05;;;;;;;10.15;9.35;;;21.80;97.20;;;;;;1747095;28;20228;-71
2022/06/04 07:31:56;;;;;;;9.73;8.93;;;21.90;97.20;;;;;;1746412;28;20199;-71
2022/06/04 07:32:47;;;;;;;15.50;10.02;;;21.90;97.20;;;;;;1746400;28;20202;-72
2022/06/04 07:33:41;;;;;;;9.90;9.07;;;22.00;97.20;;;;;;1746325;28;20218;-72
2022/06/04 07:34:32;;;;;;;10.65;9.50;;;22.00;97.20;;;;;;1746231;28;20681;-72
2022/06/04 07:35:24;;;;;;;10.53;9.53;;;22.00;97.20;;;;;;1746452;28;20793;-72
2022/06/04 07:36:18;;;;;;;11.25;9.80;;;22.10;97.20;;;;;;1745935;28;20694;-72
2022/06/04 07:37:12;;;;;;;10.13;9.32;;;22.10;97.20;;;;;;1746763;28;20667;-71
2022/06/04 07:38:03;;;;;;;10.35;9.40;;;22.20;97.20;;;;;;1746175;28;20203;-72
2022/06/04 07:38:55;;;;;;;10.30;9.40;;;22.30;97.20;;;;;;1746589;28;20200;-72
2022/06/04 07:39:46;;;;;;;10.10;9.25;;;22.30;97.20;;;;;;1745917;28;20664;-72
2022/06/04 07:40:39;;;;;;;9.23;8.47;;;22.30;97.20;;;;;;1745977;28;20289;-72
2022/06/04 07:41:32;;;;;;;10.40;9.45;;;22.40;97.20;;;;;;1746277;28;20198;-72
2022/06/04 07:42:24;;;;;;;9.60;8.70;;;22.50;97.20;;;;;;1746289;28;20194;-72
2022/06/04 07:43:15;;;;;;;9.15;8.45;;;22.50;97.20;;;;;;1746334;28;20202;-72
2022/06/04 07:44:07;;;;;;;9.10;8.40;;;22.50;97.20;;;;;;1746594;28;20266;-72
2022/06/04 07:44:58;;;;;;;8.43;7.65;;;22.60;97.20;;;;;;1746104;28;20462;-72
2022/06/04 07:45:49;;;;;;;8.10;7.40;;;22.70;97.20;;;;;;1746535;28;20219;-72
2022/06/04 07:46:41;;;;;;;8.68;7.85;;;22.80;97.20;;;;;;1746423;28;20448;-72
2022/06/04 07:47:35;;;;;;;7.82;7.18;;;22.80;97.20;;;;;;1746319;28;20202;-72
2022/06/04 07:48:25;;;;;;;7.88;6.88;;;22.90;97.20;;;;;;1746374;28;20207;-72
2022/06/04 07:49:19;;;;;;;7.87;6.90;;;23.00;97.20;;;;;;1746430;28;20221;-72
2022/06/04 07:50:12;;;;;;;7.80;7.18;;;23.10;97.20;;;;;;1746438;28;20202;-72
2022/06/04 07:51:04;;;;;;;7.28;6.75;;;23.20;97.20;;;;;;1746408;28;21439;-72
2022/06/04 07:51:56;;;;;;;8.30;7.60;;;23.20;97.20;;;;;;1745870;28;20654;-72
2022/06/04 07:52:48;;;;;;;8.25;7.40;;;23.30;97.20;;;;;;1746165;28;20203;-72
2022/06/04 07:53:39;;;;;;;8.35;7.75;;;23.30;97.20;;;;;;1746333;28;20194;-72
2022/06/04 07:54:31;;;;;;;9.03;7.93;;;23.40;97.20;;;;;;1746610;28;20757;-72
2022/06/04 07:55:22;;;;;;;7.75;7.15;;;23.40;97.20;;;;;;1746861;28;20206;-72
2022/06/04 07:56:16;;;;;;;7.50;6.90;;;23.40;97.20;;;;;;1746400;28;20195;-72
2022/06/04 07:57:07;;;;;;;7.30;6.70;;;23.40;97.20;;;;;;1745750;28;20217;-71
2022/06/04 07:57:58;;;;;;;7.93;7.20;;;23.40;97.20;;;;;;1746101;28;21034;-72
2022/06/04 07:58:49;;;;;;;7.75;6.90;;;23.40;97.20;;;;;;1746286;28;20457;-72
2022/06/04 07:59:41;;;;;;;8.60;7.33;;;23.50;97.20;;;;;;1746432;28;20194;-72
2022/06/04 08:00:37;;;;;;;8.68;7.55;;;23.40;97.20;;;;;;1746385;28;20832;-72
2022/06/04 08:01:29;;;;;;;8.80;7.88;;;23.50;97.20;;;;;;1746118;28;20198;-72
2022/06/04 08:02:21;;;;;;;8.40;7.60;;;23.40;97.20;;;;;;1746006;28;20229;-72
2022/06/04 08:03:13;;;;;;;8.45;7.70;;;23.40;97.20;;;;;;1746270;28;20694;-71
2022/06/04 08:04:04;;;;;;;9.30;8.30;;;23.40;97.20;;;;;;1746558;28;20206;-72
2022/06/04 08:04:56;;;;;;;8.70;7.85;;;23.40;97.20;;;;;;1746162;28;20194;-72
2022/06/04 08:05:49;;;;;;;9.05;8.15;;;23.40;97.20;;;;;;1769718;22;20497;-70
2022/06/04 08:06:41;;;;;;;9.13;8.23;;;23.50;97.20;;;;;;1749570;28;20202;-70
2022/06/04 08:07:33;;;;;;;8.52;7.70;;;23.50;97.20;;;;;;1750202;28;20199;-70
2022/06/04 08:08:25;;;;;;;8.60;7.75;;;23.50;97.20;;;;;;1750076;28;20217;-70
2022/06/04 08:09:16;;;;;;;8.25;7.65;;;23.60;97.20;;;;;;1750084;28;20197;-70
2022/06/04 08:10:10;;;;;;;8.90;8.10;;;23.70;97.20;;;;;;1750419;28;20277;-70
2022/06/04 08:11:30;;;;;;;8.43;7.72;;;23.80;97.20;;;;;;1750468;28;20459;-70
2022/06/04 08:12:13;;;;;;;7.70;7.00;;;23.90;97.20;;;;;;1750461;28;20541;-70
2022/06/04 08:13:05;;;;;;;8.20;7.53;;;24.00;97.20;;;;;;1750609;28;20677;-70
2022/06/04 08:13:56;;;;;;;8.55;7.43;;;24.10;97.20;;;;;;1749193;28;20206;-70
2022/06/04 08:14:47;;;;;;;9.10;8.27;;;24.20;97.20;;;;;;1748394;28;20301;-70
2022/06/04 08:15:39;;;;;;;7.60;7.00;;;24.20;97.20;;;;;;1749960;28;20449;-70
2022/06/04 08:16:31;;;;;;;8.27;7.55;;;24.30;97.20;;;;;;1748812;28;20682;-70
2022/06/04 08:17:23;;;;;;;8.10;7.40;;;24.30;97.20;;;;;;1749591;28;20202;-70
2022/06/04 08:18:15;;;;;;;8.20;7.47;;;24.30;97.20;;;;;;1749696;28;20190;-70
2022/06/04 08:19:06;;;;;;;8.23;7.50;;;24.40;97.20;;;;;;1750563;28;20669;-70
2022/06/04 08:19:58;;;;;;;7.72;7.03;;;24.40;97.20;;;;;;1748008;28;20575;-70
2022/06/04 08:20:49;;;;;;;8.10;7.45;;;24.50;97.20;;;;;;1748077;28;20198;-70
2022/06/04 08:21:42;;;;;;;7.40;6.80;;;24.50;97.20;;;;;;1750694;28;20665;-70
2022/06/04 08:22:34;;;;;;;7.85;7.15;;;24.60;97.20;;;;;;1751223;28;20198;-70
2022/06/04 08:23:26;;;;;;;7.63;7.03;;;24.60;97.20;;;;;;1749893;28;20217;-70
2022/06/04 08:24:18;;;;;;;7.47;6.82;;;24.60;97.20;;;;;;1750449;28;20203;-70
2022/06/04 08:25:10;;;;;;;7.18;6.63;;;24.60;97.20;;;;;;1749319;28;20569;-70
2022/06/04 08:26:00;;;;;;;7.85;7.15;;;24.60;97.20;;;;;;1749103;28;20213;-70
2022/06/04 08:26:58;;;;;;;7.43;6.80;;;24.60;97.20;;;;;;1749165;28;20200;-70
2022/06/04 08:27:48;;;;;;;7.90;7.30;;;24.50;97.20;;;;;;1749675;28;20456;-70
2022/06/04 08:28:40;;;;;;;7.57;6.90;;;24.50;97.20;;;;;;1748563;28;20333;-70
2022/06/04 08:29:33;;;;;;;8.82;7.45;;;24.60;97.20;;;;;;1749564;28;20197;-70
2022/06/04 08:30:24;;;;;;;12.50;7.95;;;24.60;97.20;;;;;;1750112;28;20190;-70
2022/06/04 08:31:15;;;;;;;7.25;6.65;;;24.70;97.20;;;;;;1750618;28;20209;-70
2022/06/04 08:32:08;;;;;;;7.55;7.05;;;24.80;97.20;;;;;;1749184;28;20202;-70
2022/06/04 08:32:59;;;;;;;7.05;6.55;;;24.90;97.20;;;;;;1748924;28;20195;-70
2022/06/04 08:33:51;;;;;;;7.55;6.95;;;25.00;97.20;;;;;;1748971;28;20240;-70
2022/06/04 08:34:42;;;;;;;7.90;7.30;;;25.00;97.20;;;;;;1749601;28;20587;-70
2022/06/04 08:35:34;;;;;;;7.23;6.63;;;25.10;97.20;;;;;;1746027;28;20301;-70
2022/06/04 08:36:25;;;;;;;8.40;7.70;;;25.10;97.20;;;;;;1745372;28;20209;-70
2022/06/04 08:37:17;;;;;;;8.05;7.35;;;25.20;97.20;;;;;;1746582;28;20197;-70
2022/06/04 08:38:09;;;;;;;7.60;7.00;;;25.20;97.20;;;;;;1747934;28;20555;-69
2022/06/04 08:39:02;;;;;;;8.43;7.53;;;25.30;97.20;;;;;;1747926;28;20194;-70
2022/06/04 08:39:53;;;;;;;7.75;7.05;;;25.30;97.20;;;;;;1748045;28;20241;-69
2022/06/04 08:40:49;;;;;;;7.57;6.97;;;25.30;97.20;;;;;;1748104;28;20580;-69
2022/06/04 08:41:52;;;;;;;7.18;6.55;;;25.30;97.20;;;;;;1748052;28;20568;-69
2022/06/04 08:42:52;;;;;;;7.15;6.55;;;25.30;97.20;;;;;;1748014;28;20195;-69
2022/06/04 08:43:49;;;;;;;7.95;7.25;;;25.40;97.20;;;;;;1748139;28;20205;-69
2022/06/04 08:44:44;;;;;;;8.52;7.80;;;25.40;97.20;;;;;;1748143;28;20270;-70
2022/06/04 08:45:37;;;;;;;8.90;8.10;;;25.40;97.20;;;;;;1747805;28;20280;-70
2022/06/04 08:46:34;;;;;;;9.32;8.52;;;25.40;97.20;;;;;;1747954;28;20194;-70
2022/06/04 08:47:31;;;;;;;8.65;7.75;;;25.40;97.20;;;;;;1748138;28;20210;-70
2022/06/04 08:48:30;;;;;;;8.48;7.70;;;25.50;97.20;;;;;;1747918;28;20209;-70
2022/06/04 08:49:25;;;;;;;8.82;8.13;;;25.50;97.20;;;;;;1748096;28;20213;-70
2022/06/04 08:50:21;;;;;;;7.97;7.20;;;25.60;97.20;;;;;;1747993;28;20663;-70
2022/06/04 08:51:20;;;;;;;8.63;7.82;;;25.70;97.20;;;;;;1748037;28;20603;-70
2022/06/04 08:52:14;;;;;;;8.13;7.28;;;25.90;97.20;;;;;;1748034;28;20232;-70
2022/06/04 08:53:15;;;;;;;8.27;7.57;;;26.10;97.20;;;;;;1747999;28;20677;-69
2022/06/04 08:58:01;;;;;;;8.25;7.55;;;26.80;97.20;;;;;;1747848;28;20201;-70
2022/06/04 08:59:04;;;;;;;10.48;7.70;;;26.90;97.20;;;;;;1748035;28;20705;-70
2022/06/04 09:00:03;;;;;;;7.90;7.30;;;27.00;97.20;;;;;;1748028;28;20251;-70
2022/06/04 09:01:03;;;;;;;7.50;6.90;;;27.10;97.20;;;;;;1747976;28;20265;-70
2022/06/04 09:01:58;;;;;;;6.60;5.95;;;27.10;97.20;;;;;;1747975;28;20286;-70
2022/06/04 09:03:01;;;;;;;6.75;6.15;;;27.10;97.20;;;;;;1747961;28;20277;-70
2022/06/04 09:04:00;;;;;;;6.53;6.03;;;27.20;97.20;;;;;;1747954;28;20229;-70
2022/06/04 09:05:01;;;;;;;6.50;6.00;;;27.30;97.20;;;;;;1748013;28;20194;-70
2022/06/04 09:06:09;;;;;;;9.00;7.03;;;27.40;97.20;;;;;;1747808;28;20241;-70
2022/06/04 09:07:07;;;;;;;7.53;6.82;;;27.50;97.20;;;;;;1747699;28;20206;-70
2022/06/04 09:08:03;;;;;;;7.47;6.78;;;27.70;97.20;;;;;;1747895;28;20196;-70
2022/06/04 09:09:00;;;;;;;7.03;6.43;;;27.80;97.20;;;;;;1748018;28;20251;-70
2022/06/04 09:09:58;;;;;;;8.02;6.43;;;28.00;97.20;;;;;;1748030;28;20202;-70
2022/06/04 09:10:52;;;;;;;6.97;6.25;;;28.20;97.20;;;;;;1747976;28;20632;-70
2022/06/04 09:11:50;;;;;;;7.95;7.25;;;28.30;97.20;;;;;;1747927;28;20282;-70
2022/06/04 09:12:46;;;;;;;7.53;6.82;;;28.40;97.20;;;;;;1747991;28;20202;-70
2022/06/04 09:13:43;;;;;;;8.90;8.20;;;28.40;97.20;;;;;;1747976;28;20201;-70
2022/06/04 09:14:37;;;;;;;7.50;6.80;;;28.60;97.20;;;;;;1747859;28;20456;-70
2022/06/04 09:15:35;;;;;;;6.70;6.10;;;28.60;97.20;;;;;;1747840;28;20202;-70
2022/06/04 09:16:31;;;;;;;9.00;8.20;;;28.60;97.20;;;;;;1747879;28;20218;-70
2022/06/04 09:17:33;;;;;;;9.65;8.77;;;28.50;97.20;;;;;;1747761;28;20444;-70
2022/06/04 09:18:32;;;;;;;8.77;8.13;;;28.30;97.20;;;;;;1747793;28;20343;-71
2022/06/04 09:19:27;;;;;;;9.52;8.60;;;28.10;97.20;;;;;;1747883;28;20202;-71
2022/06/04 09:20:28;;;;;;;8.88;8.10;;;27.90;97.20;;;;;;1747983;28;20198;-71
2022/06/04 09:21:19;;;;;;;9.73;8.82;;;27.80;97.20;;;;;;1747892;28;20203;-71
2022/06/04 09:22:21;;;;;;;9.82;8.82;;;27.70;97.20;;;;;;1747959;28;20194;-70
2022/06/04 09:23:18;;;;;;;8.20;7.60;;;27.70;97.20;;;;;;1747872;28;20198;-71
2022/06/04 09:24:12;;;;;;;8.90;8.10;;;27.80;97.20;;;;;;1747953;28;20757;-71
2022/06/04 09:25:03;;;;;;;10.25;9.18;;;27.80;97.20;;;;;;1747869;28;20195;-71
2022/06/04 09:26:00;;;;;;;10.50;9.55;;;27.90;97.20;;;;;;1748044;28;20218;-71
2022/06/04 09:26:59;;;;;;;9.35;8.55;;;27.90;97.20;;;;;;1749029;28;20199;-71
2022/06/04 09:28:03;;;;;;;10.10;9.10;;;28.00;97.20;;;;;;1749240;28;20202;-71
2022/06/04 09:29:04;;;;;;;11.65;10.48;;;28.10;97.20;;;;;;1749350;28;20195;-71
2022/06/04 09:30:09;;;;;;;10.57;9.80;;;28.10;97.20;;;;;;1749311;28;20222;-71
2022/06/04 09:31:11;;;;;;;10.93;9.93;;;28.20;97.20;;;;;;1749313;28;20662;-71
2022/06/04 09:32:14;;;;;;;10.35;9.43;;;28.20;97.20;;;;;;1749342;28;20662;-71
2022/06/04 09:33:48;;;;;;;9.90;9.03;;;28.20;97.20;;;;;;1749433;28;20203;-71
2022/06/04 09:34:44;;;;;;;10.30;9.45;;;28.20;97.20;;;;;;1749298;28;20814;-71
2022/06/04 09:35:39;;;;;;;8.73;8.02;;;28.10;97.20;;;;;;1749205;28;20273;-71
2022/06/04 09:36:33;;;;;;;9.25;8.52;;;28.10;97.20;;;;;;1749205;28;20202;-71
2022/06/04 09:37:25;;;;;;;10.00;9.10;;;28.00;97.20;;;;;;1749199;28;20260;-71
2022/06/04 09:38:23;;;;;;;9.80;8.90;;;27.90;97.20;;;;;;1749173;28;20803;-71
2022/06/04 09:39:23;;;;;;;9.60;8.90;;;27.80;97.20;;;;;;1749228;28;20198;-71
2022/06/04 09:40:23;;;;;;;9.02;8.20;;;27.70;97.20;;;;;;1749283;28;20583;-71